sensor_id;sensor_type;location;lat;lon;timestamp;temperature;humidity
15666;DHT22;20725;51.196;3.510;2023-02-28T00:00:01;0.00;73.80
15666;DHT22;20725;51.196;3.510;2023-02-28T00:02:36;0.00;74.40
15666;DHT22;20725;51.196;3.510;2023-02-28T00:05:04;0.00;74.20
15666;DHT22;20725;51.196;3.510;2023-02-28T00:07:32;0.00;75.90
15666;DHT22;20725;51.196;3.510;2023-02-28T00:10:00;0.00;75.40
15666;DHT22;20725;51.196;3.510;2023-02-28T00:12:28;0.00;76.10
15666;DHT22;20725;51.196;3.510;2023-02-28T00:14:55;0.00;76.30
15666;DHT22;20725;51.196;3.510;2023-02-28T00:17:22;-0.10;75.10
15666;DHT22;20725;51.196;3.510;2023-02-28T00:19:55;-0.10;75.10
15666;DHT22;20725;51.196;3.510;2023-02-28T00:22:27;-0.20;76.50
15666;DHT22;20725;51.196;3.510;2023-02-28T00:24:59;0.00;76.10
15666;DHT22;20725;51.196;3.510;2023-02-28T00:27:29;0.00;76.40
15666;DHT22;20725;51.196;3.510;2023-02-28T00:29:56;-0.10;76.30
15666;DHT22;20725;51.196;3.510;2023-02-28T00:32:24;-0.10;76.20
15666;DHT22;20725;51.196;3.510;2023-02-28T00:34:53;-0.10;76.60
15666;DHT22;20725;51.196;3.510;2023-02-28T00:37:20;0.00;76.60
15666;DHT22;20725;51.196;3.510;2023-02-28T00:39:48;0.00;76.60
15666;DHT22;20725;51.196;3.510;2023-02-28T00:42:15;0.10;76.90
15666;DHT22;20725;51.196;3.510;2023-02-28T00:44:43;0.00;77.30
15666;DHT22;20725;51.196;3.510;2023-02-28T00:47:10;0.00;77.30
15666;DHT22;20725;51.196;3.510;2023-02-28T00:49:37;0.10;77.40
15666;DHT22;20725;51.196;3.510;2023-02-28T00:52:06;0.20;77.60
15666;DHT22;20725;51.196;3.510;2023-02-28T00:54:33;0.10;77.50
15666;DHT22;20725;51.196;3.510;2023-02-28T00:57:00;0.10;77.60
15666;DHT22;20725;51.196;3.510;2023-02-28T00:59:29;0.10;77.60
15666;DHT22;20725;51.196;3.510;2023-02-28T01:07:01;0.20;78.90
15666;DHT22;20725;51.196;3.510;2023-02-28T01:09:29;0.20;79.50
15666;DHT22;20725;51.196;3.510;2023-02-28T01:11:56;0.20;79.20
15666;DHT22;20725;51.196;3.510;2023-02-28T01:14:23;0.20;79.60
15666;DHT22;20725;51.196;3.510;2023-02-28T01:16:50;0.30;80.00
15666;DHT22;20725;51.196;3.510;2023-02-28T01:19:17;0.20;79.80
15666;DHT22;20725;51.196;3.510;2023-02-28T01:21:44;0.20;79.80
15666;DHT22;20725;51.196;3.510;2023-02-28T01:24:11;0.20;80.40
15666;DHT22;20725;51.196;3.510;2023-02-28T01:26:39;0.20;80.40
15666;DHT22;20725;51.196;3.510;2023-02-28T01:29:06;0.30;81.00
15666;DHT22;20725;51.196;3.510;2023-02-28T01:31:33;0.30;81.90
15666;DHT22;20725;51.196;3.510;2023-02-28T01:34:00;0.30;81.40
15666;DHT22;20725;51.196;3.510;2023-02-28T01:36:27;0.30;81.20
15666;DHT22;20725;51.196;3.510;2023-02-28T01:38:54;0.30;81.60
15666;DHT22;20725;51.196;3.510;2023-02-28T01:41:22;0.20;81.40
15666;DHT22;20725;51.196;3.510;2023-02-28T01:44:00;0.20;81.60
15666;DHT22;20725;51.196;3.510;2023-02-28T01:46:29;0.20;82.20
15666;DHT22;20725;51.196;3.510;2023-02-28T01:49:01;0.20;82.20
15666;DHT22;20725;51.196;3.510;2023-02-28T01:51:32;0.10;82.10
15666;DHT22;20725;51.196;3.510;2023-02-28T01:54:02;0.10;83.20
15666;DHT22;20725;51.196;3.510;2023-02-28T01:56:33;0.10;82.40
15666;DHT22;20725;51.196;3.510;2023-02-28T01:59:03;0.10;82.80
15666;DHT22;20725;51.196;3.510;2023-02-28T02:01:30;0.10;84.10
15666;DHT22;20725;51.196;3.510;2023-02-28T02:04:01;0.10;83.80
15666;DHT22;20725;51.196;3.510;2023-02-28T02:06:32;0.10;83.60
15666;DHT22;20725;51.196;3.510;2023-02-28T02:08:59;0.00;84.20
15666;DHT22;20725;51.196;3.510;2023-02-28T02:11:27;-0.10;84.10
15666;DHT22;20725;51.196;3.510;2023-02-28T02:14:18;-0.10;83.40
15666;DHT22;20725;51.196;3.510;2023-02-28T02:17:05;-0.20;83.70
15666;DHT22;20725;51.196;3.510;2023-02-28T02:22:57;-0.30;83.20
15666;DHT22;20725;51.196;3.510;2023-02-28T02:25:31;-0.30;82.90
15666;DHT22;20725;51.196;3.510;2023-02-28T02:28:42;-0.40;83.80
15666;DHT22;20725;51.196;3.510;2023-02-28T02:31:39;-0.30;84.40
15666;DHT22;20725;51.196;3.510;2023-02-28T02:34:29;-0.30;84.90
15666;DHT22;20725;51.196;3.510;2023-02-28T02:37:08;-0.20;84.80
15666;DHT22;20725;51.196;3.510;2023-02-28T02:39:44;0.00;85.10
15666;DHT22;20725;51.196;3.510;2023-02-28T02:42:16;0.20;85.00
15666;DHT22;20725;51.196;3.510;2023-02-28T02:44:51;0.30;84.60
15666;DHT22;20725;51.196;3.510;2023-02-28T02:47:22;0.50;84.20
15666;DHT22;20725;51.196;3.510;2023-02-28T02:49:55;0.60;84.00
15666;DHT22;20725;51.196;3.510;2023-02-28T02:52:25;0.70;84.10
15666;DHT22;20725;51.196;3.510;2023-02-28T02:54:56;0.90;84.10
15666;DHT22;20725;51.196;3.510;2023-02-28T02:57:26;1.00;83.50
15666;DHT22;20725;51.196;3.510;2023-02-28T02:59:56;1.10;83.70
15666;DHT22;20725;51.196;3.510;2023-02-28T03:02:23;1.20;83.30
15666;DHT22;20725;51.196;3.510;2023-02-28T03:04:56;1.30;83.00
15666;DHT22;20725;51.196;3.510;2023-02-28T03:07:26;1.40;83.20
15666;DHT22;20725;51.196;3.510;2023-02-28T03:09:55;1.50;82.80
15666;DHT22;20725;51.196;3.510;2023-02-28T03:12:26;1.60;82.70
15666;DHT22;20725;51.196;3.510;2023-02-28T03:15:02;1.60;82.80
15666;DHT22;20725;51.196;3.510;2023-02-28T03:17:51;1.70;82.20
15666;DHT22;20725;51.196;3.510;2023-02-28T03:20:35;1.70;81.70
15666;DHT22;20725;51.196;3.510;2023-02-28T03:23:10;1.90;82.10
15666;DHT22;20725;51.196;3.510;2023-02-28T03:25:49;1.80;82.30
15666;DHT22;20725;51.196;3.510;2023-02-28T03:28:22;1.90;81.80
15666;DHT22;20725;51.196;3.510;2023-02-28T03:30:51;1.90;82.50
15666;DHT22;20725;51.196;3.510;2023-02-28T03:33:22;2.00;81.80
15666;DHT22;20725;51.196;3.510;2023-02-28T03:35:54;2.10;81.80
15666;DHT22;20725;51.196;3.510;2023-02-28T03:38:26;2.10;81.50
15666;DHT22;20725;51.196;3.510;2023-02-28T03:40:59;2.20;81.50
15666;DHT22;20725;51.196;3.510;2023-02-28T03:43:29;2.20;81.30
15666;DHT22;20725;51.196;3.510;2023-02-28T03:45:59;2.30;81.30
15666;DHT22;20725;51.196;3.510;2023-02-28T03:48:32;2.30;81.50
15666;DHT22;20725;51.196;3.510;2023-02-28T03:51:03;2.40;81.50
15666;DHT22;20725;51.196;3.510;2023-02-28T03:53:35;2.40;81.10
15666;DHT22;20725;51.196;3.510;2023-02-28T03:56:07;2.50;81.00
15666;DHT22;20725;51.196;3.510;2023-02-28T03:58:42;2.50;81.00
15666;DHT22;20725;51.196;3.510;2023-02-28T04:01:13;2.60;81.00
15666;DHT22;20725;51.196;3.510;2023-02-28T04:03:41;2.60;81.20
15666;DHT22;20725;51.196;3.510;2023-02-28T04:06:15;2.60;80.80
15666;DHT22;20725;51.196;3.510;2023-02-28T04:08:44;2.70;81.00
15666;DHT22;20725;51.196;3.510;2023-02-28T04:11:18;2.70;80.70
15666;DHT22;20725;51.196;3.510;2023-02-28T04:13:46;2.80;80.40
15666;DHT22;20725;51.196;3.510;2023-02-28T04:16:14;2.80;80.40
15666;DHT22;20725;51.196;3.510;2023-02-28T04:18:41;2.80;80.20
15666;DHT22;20725;51.196;3.510;2023-02-28T04:21:11;2.90;80.50
15666;DHT22;20725;51.196;3.510;2023-02-28T04:23:38;2.90;80.20
15666;DHT22;20725;51.196;3.510;2023-02-28T04:26:05;2.90;80.30
15666;DHT22;20725;51.196;3.510;2023-02-28T04:28:32;3.00;80.10
15666;DHT22;20725;51.196;3.510;2023-02-28T04:31:01;3.00;79.90
15666;DHT22;20725;51.196;3.510;2023-02-28T04:33:29;3.00;80.10
15666;DHT22;20725;51.196;3.510;2023-02-28T04:36:00;3.10;80.20
15666;DHT22;20725;51.196;3.510;2023-02-28T04:38:30;3.10;79.90
15666;DHT22;20725;51.196;3.510;2023-02-28T04:40:59;3.10;80.00
15666;DHT22;20725;51.196;3.510;2023-02-28T04:43:27;3.10;80.00
15666;DHT22;20725;51.196;3.510;2023-02-28T04:45:54;3.20;79.70
15666;DHT22;20725;51.196;3.510;2023-02-28T04:48:22;3.20;79.70
15666;DHT22;20725;51.196;3.510;2023-02-28T04:50:51;3.20;79.90
15666;DHT22;20725;51.196;3.510;2023-02-28T04:53:18;3.30;79.80
15666;DHT22;20725;51.196;3.510;2023-02-28T04:55:47;3.30;79.60
15666;DHT22;20725;51.196;3.510;2023-02-28T04:58:14;3.30;79.70
15666;DHT22;20725;51.196;3.510;2023-02-28T05:00:41;3.30;79.90
15666;DHT22;20725;51.196;3.510;2023-02-28T05:03:08;3.30;79.40
15666;DHT22;20725;51.196;3.510;2023-02-28T05:05:35;3.30;79.50
15666;DHT22;20725;51.196;3.510;2023-02-28T05:08:02;3.30;79.00
15666;DHT22;20725;51.196;3.510;2023-02-28T05:10:30;3.30;78.90
15666;DHT22;20725;51.196;3.510;2023-02-28T05:12:59;3.40;79.00
15666;DHT22;20725;51.196;3.510;2023-02-28T05:15:26;3.40;79.20
15666;DHT22;20725;51.196;3.510;2023-02-28T05:17:52;3.40;79.30
15666;DHT22;20725;51.196;3.510;2023-02-28T05:20:19;3.40;79.20
15666;DHT22;20725;51.196;3.510;2023-02-28T05:22:47;3.40;79.10
15666;DHT22;20725;51.196;3.510;2023-02-28T05:25:17;3.40;79.00
15666;DHT22;20725;51.196;3.510;2023-02-28T05:27:44;3.40;78.90
15666;DHT22;20725;51.196;3.510;2023-02-28T05:30:13;3.40;78.90
15666;DHT22;20725;51.196;3.510;2023-02-28T05:32:41;3.40;78.70
15666;DHT22;20725;51.196;3.510;2023-02-28T05:35:10;3.50;78.50
15666;DHT22;20725;51.196;3.510;2023-02-28T05:37:38;3.50;78.60
15666;DHT22;20725;51.196;3.510;2023-02-28T05:40:07;3.50;78.50
15666;DHT22;20725;51.196;3.510;2023-02-28T05:42:35;3.60;78.50
15666;DHT22;20725;51.196;3.510;2023-02-28T05:45:03;3.60;78.50
15666;DHT22;20725;51.196;3.510;2023-02-28T05:47:31;3.60;78.50
15666;DHT22;20725;51.196;3.510;2023-02-28T05:49:58;3.60;78.20
15666;DHT22;20725;51.196;3.510;2023-02-28T05:52:25;3.60;78.50
15666;DHT22;20725;51.196;3.510;2023-02-28T05:54:52;3.60;78.60
15666;DHT22;20725;51.196;3.510;2023-02-28T05:57:19;3.60;78.20
15666;DHT22;20725;51.196;3.510;2023-02-28T05:59:46;3.70;78.50
15666;DHT22;20725;51.196;3.510;2023-02-28T06:02:15;3.70;78.30
15666;DHT22;20725;51.196;3.510;2023-02-28T06:04:44;3.70;77.80
15666;DHT22;20725;51.196;3.510;2023-02-28T06:07:11;3.70;77.50
15666;DHT22;20725;51.196;3.510;2023-02-28T06:09:38;3.70;77.70
15666;DHT22;20725;51.196;3.510;2023-02-28T06:12:06;3.70;77.50
15666;DHT22;20725;51.196;3.510;2023-02-28T06:14:35;3.70;77.50
15666;DHT22;20725;51.196;3.510;2023-02-28T06:17:02;3.70;77.40
15666;DHT22;20725;51.196;3.510;2023-02-28T06:19:29;3.80;77.60
15666;DHT22;20725;51.196;3.510;2023-02-28T06:21:58;3.70;77.50
15666;DHT22;20725;51.196;3.510;2023-02-28T06:24:25;3.80;77.40
15666;DHT22;20725;51.196;3.510;2023-02-28T06:26:54;3.70;77.50
15666;DHT22;20725;51.196;3.510;2023-02-28T06:29:21;3.80;77.40
15666;DHT22;20725;51.196;3.510;2023-02-28T06:31:49;3.80;77.10
15666;DHT22;20725;51.196;3.510;2023-02-28T06:34:16;3.80;77.50
15666;DHT22;20725;51.196;3.510;2023-02-28T06:36:43;3.80;77.50
15666;DHT22;20725;51.196;3.510;2023-02-28T06:39:12;3.80;77.40
15666;DHT22;20725;51.196;3.510;2023-02-28T06:41:39;3.80;77.60
15666;DHT22;20725;51.196;3.510;2023-02-28T06:44:11;3.90;77.80
15666;DHT22;20725;51.196;3.510;2023-02-28T06:46:40;3.80;78.00
15666;DHT22;20725;51.196;3.510;2023-02-28T06:49:07;3.80;78.20
15666;DHT22;20725;51.196;3.510;2023-02-28T06:51:36;3.80;78.70
15666;DHT22;20725;51.196;3.510;2023-02-28T06:54:03;3.80;78.70
15666;DHT22;20725;51.196;3.510;2023-02-28T06:56:31;3.80;78.80
15666;DHT22;20725;51.196;3.510;2023-02-28T06:58:58;3.80;78.40
15666;DHT22;20725;51.196;3.510;2023-02-28T07:01:25;3.70;78.70
15666;DHT22;20725;51.196;3.510;2023-02-28T07:03:54;3.70;78.40
15666;DHT22;20725;51.196;3.510;2023-02-28T07:06:22;3.80;78.50
15666;DHT22;20725;51.196;3.510;2023-02-28T07:08:50;3.80;78.20
15666;DHT22;20725;51.196;3.510;2023-02-28T07:11:18;3.80;78.10
15666;DHT22;20725;51.196;3.510;2023-02-28T07:13:46;3.80;77.40
15666;DHT22;20725;51.196;3.510;2023-02-28T07:16:13;3.80;77.50
15666;DHT22;20725;51.196;3.510;2023-02-28T07:18:40;3.80;77.30
15666;DHT22;20725;51.196;3.510;2023-02-28T07:21:09;3.80;77.20
15666;DHT22;20725;51.196;3.510;2023-02-28T07:23:37;3.70;76.40
15666;DHT22;20725;51.196;3.510;2023-02-28T07:26:04;3.70;77.60
15666;DHT22;20725;51.196;3.510;2023-02-28T07:28:32;3.70;76.70
15666;DHT22;20725;51.196;3.510;2023-02-28T07:31:04;3.70;76.80
15666;DHT22;20725;51.196;3.510;2023-02-28T07:33:32;3.80;77.00
15666;DHT22;20725;51.196;3.510;2023-02-28T07:36:03;3.90;77.40
15666;DHT22;20725;51.196;3.510;2023-02-28T07:38:30;3.80;77.40
15666;DHT22;20725;51.196;3.510;2023-02-28T07:40:57;3.80;77.20
15666;DHT22;20725;51.196;3.510;2023-02-28T07:43:24;3.90;77.00
15666;DHT22;20725;51.196;3.510;2023-02-28T07:45:51;3.80;76.60
15666;DHT22;20725;51.196;3.510;2023-02-28T07:48:19;3.90;76.60
15666;DHT22;20725;51.196;3.510;2023-02-28T07:50:54;4.00;76.50
15666;DHT22;20725;51.196;3.510;2023-02-28T07:53:21;4.10;76.80
15666;DHT22;20725;51.196;3.510;2023-02-28T07:55:48;4.00;76.40
15666;DHT22;20725;51.196;3.510;2023-02-28T07:58:15;4.00;76.60
15666;DHT22;20725;51.196;3.510;2023-02-28T08:00:42;4.10;76.40
15666;DHT22;20725;51.196;3.510;2023-02-28T08:03:11;4.10;76.20
15666;DHT22;20725;51.196;3.510;2023-02-28T08:05:40;4.20;76.20
15666;DHT22;20725;51.196;3.510;2023-02-28T08:08:07;4.30;76.00
15666;DHT22;20725;51.196;3.510;2023-02-28T08:10:35;4.20;76.00
15666;DHT22;20725;51.196;3.510;2023-02-28T08:13:02;4.30;76.20
15666;DHT22;20725;51.196;3.510;2023-02-28T08:15:29;4.40;76.10
15666;DHT22;20725;51.196;3.510;2023-02-28T08:17:56;4.40;75.70
15666;DHT22;20725;51.196;3.510;2023-02-28T08:20:24;4.40;75.50
15666;DHT22;20725;51.196;3.510;2023-02-28T08:22:52;4.50;75.70
15666;DHT22;20725;51.196;3.510;2023-02-28T08:25:19;4.50;75.70
15666;DHT22;20725;51.196;3.510;2023-02-28T08:27:46;4.60;75.70
15666;DHT22;20725;51.196;3.510;2023-02-28T08:30:14;4.70;75.30
15666;DHT22;20725;51.196;3.510;2023-02-28T08:32:41;4.80;75.30
15666;DHT22;20725;51.196;3.510;2023-02-28T08:35:09;4.80;75.10
15666;DHT22;20725;51.196;3.510;2023-02-28T08:37:36;4.90;75.00
15666;DHT22;20725;51.196;3.510;2023-02-28T08:40:06;4.90;74.50
15666;DHT22;20725;51.196;3.510;2023-02-28T08:42:33;5.00;74.10
15666;DHT22;20725;51.196;3.510;2023-02-28T08:45:00;4.90;73.70
15666;DHT22;20725;51.196;3.510;2023-02-28T08:47:27;4.90;73.50
15666;DHT22;20725;51.196;3.510;2023-02-28T08:49:53;4.90;73.40
15666;DHT22;20725;51.196;3.510;2023-02-28T08:52:20;5.00;73.60
15666;DHT22;20725;51.196;3.510;2023-02-28T08:54:47;5.00;73.60
15666;DHT22;20725;51.196;3.510;2023-02-28T08:57:16;5.10;73.60
15666;DHT22;20725;51.196;3.510;2023-02-28T08:59:43;5.20;73.60
15666;DHT22;20725;51.196;3.510;2023-02-28T09:02:12;5.20;73.80
15666;DHT22;20725;51.196;3.510;2023-02-28T09:04:39;5.20;73.70
15666;DHT22;20725;51.196;3.510;2023-02-28T09:07:07;5.20;73.70
15666;DHT22;20725;51.196;3.510;2023-02-28T09:09:34;5.20;74.40
15666;DHT22;20725;51.196;3.510;2023-02-28T09:12:01;5.20;75.30
15666;DHT22;20725;51.196;3.510;2023-02-28T09:14:29;5.30;74.40
15666;DHT22;20725;51.196;3.510;2023-02-28T09:16:56;5.40;74.40
15666;DHT22;20725;51.196;3.510;2023-02-28T09:19:23;5.50;74.40
15666;DHT22;20725;51.196;3.510;2023-02-28T09:21:50;5.60;74.40
15666;DHT22;20725;51.196;3.510;2023-02-28T09:24:17;5.70;73.90
15666;DHT22;20725;51.196;3.510;2023-02-28T09:26:46;5.80;73.90
15666;DHT22;20725;51.196;3.510;2023-02-28T09:29:13;6.00;74.10
15666;DHT22;20725;51.196;3.510;2023-02-28T09:31:43;6.10;74.40
15666;DHT22;20725;51.196;3.510;2023-02-28T09:34:10;6.10;75.00
15666;DHT22;20725;51.196;3.510;2023-02-28T09:36:37;6.20;74.20
15666;DHT22;20725;51.196;3.510;2023-02-28T09:39:04;6.10;73.90
15666;DHT22;20725;51.196;3.510;2023-02-28T09:41:37;6.20;73.70
15666;DHT22;20725;51.196;3.510;2023-02-28T09:44:15;6.20;73.50
15666;DHT22;20725;51.196;3.510;2023-02-28T09:46:49;6.30;73.70
15666;DHT22;20725;51.196;3.510;2023-02-28T09:49:20;6.30;73.60
15666;DHT22;20725;51.196;3.510;2023-02-28T09:51:51;6.40;74.00
15666;DHT22;20725;51.196;3.510;2023-02-28T09:54:20;6.50;73.70
15666;DHT22;20725;51.196;3.510;2023-02-28T09:56:51;6.60;73.80
15666;DHT22;20725;51.196;3.510;2023-02-28T09:59:30;6.70;73.60
15666;DHT22;20725;51.196;3.510;2023-02-28T10:02:08;6.80;74.30
15666;DHT22;20725;51.196;3.510;2023-02-28T10:04:43;6.70;74.60
15666;DHT22;20725;51.196;3.510;2023-02-28T10:07:22;6.80;73.60
15666;DHT22;20725;51.196;3.510;2023-02-28T10:09:54;6.90;73.30
15666;DHT22;20725;51.196;3.510;2023-02-28T10:12:23;6.90;72.50
15666;DHT22;20725;51.196;3.510;2023-02-28T10:14:53;6.90;72.50
15666;DHT22;20725;51.196;3.510;2023-02-28T10:17:25;6.90;72.10
15666;DHT22;20725;51.196;3.510;2023-02-28T10:19:58;6.90;72.00
15666;DHT22;20725;51.196;3.510;2023-02-28T10:22:36;6.80;72.00
15666;DHT22;20725;51.196;3.510;2023-02-28T10:25:15;6.80;71.90
15666;DHT22;20725;51.196;3.510;2023-02-28T10:27:43;6.80;71.40
15666;DHT22;20725;51.196;3.510;2023-02-28T10:30:11;6.80;71.00
15666;DHT22;20725;51.196;3.510;2023-02-28T10:32:47;6.70;70.40
15666;DHT22;20725;51.196;3.510;2023-02-28T10:35:17;6.60;68.90
15666;DHT22;20725;51.196;3.510;2023-02-28T10:37:47;6.40;65.20
15666;DHT22;20725;51.196;3.510;2023-02-28T10:40:30;6.30;64.80
15666;DHT22;20725;51.196;3.510;2023-02-28T10:42:59;6.20;61.50
15666;DHT22;20725;51.196;3.510;2023-02-28T10:45:28;6.10;63.10
15666;DHT22;20725;51.196;3.510;2023-02-28T10:48:00;6.30;63.90
15666;DHT22;20725;51.196;3.510;2023-02-28T10:50:33;6.40;62.10
15666;DHT22;20725;51.196;3.510;2023-02-28T10:53:16;6.40;60.60
15666;DHT22;20725;51.196;3.510;2023-02-28T10:55:44;6.40;59.00
15666;DHT22;20725;51.196;3.510;2023-02-28T10:58:22;6.50;58.90
15666;DHT22;20725;51.196;3.510;2023-02-28T11:00:49;6.90;59.30
15666;DHT22;20725;51.196;3.510;2023-02-28T11:03:29;7.20;59.10
15666;DHT22;20725;51.196;3.510;2023-02-28T11:05:57;7.70;52.70
15666;DHT22;20725;51.196;3.510;2023-02-28T11:08:24;8.50;55.20
15666;DHT22;20725;51.196;3.510;2023-02-28T11:10:55;8.90;53.20
15666;DHT22;20725;51.196;3.510;2023-02-28T11:13:27;9.20;53.60
15666;DHT22;20725;51.196;3.510;2023-02-28T11:15:57;9.60;52.60
15666;DHT22;20725;51.196;3.510;2023-02-28T11:18:28;9.90;49.70
15666;DHT22;20725;51.196;3.510;2023-02-28T11:20:58;9.90;50.80
15666;DHT22;20725;51.196;3.510;2023-02-28T11:23:29;10.30;50.30
15666;DHT22;20725;51.196;3.510;2023-02-28T11:26:00;10.40;49.10
15666;DHT22;20725;51.196;3.510;2023-02-28T11:28:29;10.60;48.00
15666;DHT22;20725;51.196;3.510;2023-02-28T11:31:03;11.00;47.00
15666;DHT22;20725;51.196;3.510;2023-02-28T11:33:41;11.60;44.90
15666;DHT22;20725;51.196;3.510;2023-02-28T11:36:12;12.30;45.70
15666;DHT22;20725;51.196;3.510;2023-02-28T11:38:40;12.90;44.20
15666;DHT22;20725;51.196;3.510;2023-02-28T11:41:21;13.90;43.20
15666;DHT22;20725;51.196;3.510;2023-02-28T11:44:03;16.00;38.80
15666;DHT22;20725;51.196;3.510;2023-02-28T11:46:38;20.50;31.70
15666;DHT22;20725;51.196;3.510;2023-02-28T11:49:30;23.50;28.50
15666;DHT22;20725;51.196;3.510;2023-02-28T11:52:00;26.20;23.10
15666;DHT22;20725;51.196;3.510;2023-02-28T11:57:33;30.60;18.00
15666;DHT22;20725;51.196;3.510;2023-02-28T12:00:08;30.00;17.00
15666;DHT22;20725;51.196;3.510;2023-02-28T12:02:58;29.70;18.40
15666;DHT22;20725;51.196;3.510;2023-02-28T12:05:32;29.90;16.70
15666;DHT22;20725;51.196;3.510;2023-02-28T12:08:08;32.00;16.10
15666;DHT22;20725;51.196;3.510;2023-02-28T12:10:47;30.60;15.50
15666;DHT22;20725;51.196;3.510;2023-02-28T12:13:23;31.60;15.00
15666;DHT22;20725;51.196;3.510;2023-02-28T12:19:18;32.80;15.00
15666;DHT22;20725;51.196;3.510;2023-02-28T12:22:01;34.70;12.50
15666;DHT22;20725;51.196;3.510;2023-02-28T12:24:54;35.30;11.30
15666;DHT22;20725;51.196;3.510;2023-02-28T12:27:28;35.30;10.20
15666;DHT22;20725;51.196;3.510;2023-02-28T12:29:58;36.60;12.70
15666;DHT22;20725;51.196;3.510;2023-02-28T12:32:33;36.60;9.90
15666;DHT22;20725;51.196;3.510;2023-02-28T12:35:04;36.00;11.30
15666;DHT22;20725;51.196;3.510;2023-02-28T12:37:41;36.30;11.80
15666;DHT22;20725;51.196;3.510;2023-02-28T12:40:13;37.00;10.90
15666;DHT22;20725;51.196;3.510;2023-02-28T12:42:44;37.20;10.00
15666;DHT22;20725;51.196;3.510;2023-02-28T12:45:17;38.10;10.00
15666;DHT22;20725;51.196;3.510;2023-02-28T12:47:46;37.70;9.90
15666;DHT22;20725;51.196;3.510;2023-02-28T12:50:15;36.50;9.10
15666;DHT22;20725;51.196;3.510;2023-02-28T12:52:53;36.00;10.40
15666;DHT22;20725;51.196;3.510;2023-02-28T12:55:26;36.60;9.60
15666;DHT22;20725;51.196;3.510;2023-02-28T12:58:00;36.20;9.50
15666;DHT22;20725;51.196;3.510;2023-02-28T13:00:34;36.40;9.30
15666;DHT22;20725;51.196;3.510;2023-02-28T13:03:27;36.40;9.30
15666;DHT22;20725;51.196;3.510;2023-02-28T13:09:03;35.80;9.40
15666;DHT22;20725;51.196;3.510;2023-02-28T13:11:34;36.50;9.10
15666;DHT22;20725;51.196;3.510;2023-02-28T13:14:15;36.80;9.40
15666;DHT22;20725;51.196;3.510;2023-02-28T13:16:58;35.70;8.90
15666;DHT22;20725;51.196;3.510;2023-02-28T13:19:27;35.80;9.60
15666;DHT22;20725;51.196;3.510;2023-02-28T13:21:56;36.60;9.40
15666;DHT22;20725;51.196;3.510;2023-02-28T13:24:44;37.50;9.20
15666;DHT22;20725;51.196;3.510;2023-02-28T13:27:36;36.50;8.40
15666;DHT22;20725;51.196;3.510;2023-02-28T13:33:26;35.90;8.40
15666;DHT22;20725;51.196;3.510;2023-02-28T13:38:55;35.90;9.30
15666;DHT22;20725;51.196;3.510;2023-02-28T13:41:43;36.40;8.60
15666;DHT22;20725;51.196;3.510;2023-02-28T13:44:12;36.20;9.30
15666;DHT22;20725;51.196;3.510;2023-02-28T13:49:39;35.50;9.00
15666;DHT22;20725;51.196;3.510;2023-02-28T13:52:12;35.50;8.00
15666;DHT22;20725;51.196;3.510;2023-02-28T13:55:09;34.80;8.30
15666;DHT22;20725;51.196;3.510;2023-02-28T13:57:52;35.80;9.50
15666;DHT22;20725;51.196;3.510;2023-02-28T14:00:31;36.00;7.40
15666;DHT22;20725;51.196;3.510;2023-02-28T14:03:26;35.50;8.50
15666;DHT22;20725;51.196;3.510;2023-02-28T14:06:14;34.60;9.20
15666;DHT22;20725;51.196;3.510;2023-02-28T14:08:50;34.00;7.60
15666;DHT22;20725;51.196;3.510;2023-02-28T14:11:28;32.60;7.80
15666;DHT22;20725;51.196;3.510;2023-02-28T14:13:57;33.70;8.80
15666;DHT22;20725;51.196;3.510;2023-02-28T14:16:25;34.20;8.10
15666;DHT22;20725;51.196;3.510;2023-02-28T14:18:58;34.60;7.80
15666;DHT22;20725;51.196;3.510;2023-02-28T14:21:29;33.90;7.60
15666;DHT22;20725;51.196;3.510;2023-02-28T14:24:25;34.10;7.80
15666;DHT22;20725;51.196;3.510;2023-02-28T14:33:45;33.40;8.10
15666;DHT22;20725;51.196;3.510;2023-02-28T14:36:18;32.40;8.50
15666;DHT22;20725;51.196;3.510;2023-02-28T14:38:49;32.20;7.80
15666;DHT22;20725;51.196;3.510;2023-02-28T14:41:23;31.70;8.60
15666;DHT22;20725;51.196;3.510;2023-02-28T14:43:55;31.20;7.40
15666;DHT22;20725;51.196;3.510;2023-02-28T14:46:26;31.40;8.50
15666;DHT22;20725;51.196;3.510;2023-02-28T14:48:55;31.60;7.40
15666;DHT22;20725;51.196;3.510;2023-02-28T14:51:23;31.90;7.80
15666;DHT22;20725;51.196;3.510;2023-02-28T14:53:59;29.80;8.70
15666;DHT22;20725;51.196;3.510;2023-02-28T14:56:32;29.50;9.00
15666;DHT22;20725;51.196;3.510;2023-02-28T14:59:00;30.40;8.40
15666;DHT22;20725;51.196;3.510;2023-02-28T15:01:28;31.00;8.50
15666;DHT22;20725;51.196;3.510;2023-02-28T15:03:59;30.90;8.10
15666;DHT22;20725;51.196;3.510;2023-02-28T15:06:27;30.40;9.10
15666;DHT22;20725;51.196;3.510;2023-02-28T15:09:15;31.10;8.40
15666;DHT22;20725;51.196;3.510;2023-02-28T15:11:46;31.00;8.30
15666;DHT22;20725;51.196;3.510;2023-02-28T15:14:18;30.80;8.10
15666;DHT22;20725;51.196;3.510;2023-02-28T15:16:50;29.70;8.60
15666;DHT22;20725;51.196;3.510;2023-02-28T15:19:22;28.20;8.90
15666;DHT22;20725;51.196;3.510;2023-02-28T15:21:54;27.10;9.90
15666;DHT22;20725;51.196;3.510;2023-02-28T15:24:28;27.30;9.80
15666;DHT22;20725;51.196;3.510;2023-02-28T15:26:58;27.10;10.20
15666;DHT22;20725;51.196;3.510;2023-02-28T15:29:28;26.30;9.80
15666;DHT22;20725;51.196;3.510;2023-02-28T15:32:00;26.60;10.80
15666;DHT22;20725;51.196;3.510;2023-02-28T15:34:33;26.40;10.80
15666;DHT22;20725;51.196;3.510;2023-02-28T15:37:01;25.40;10.30
15666;DHT22;20725;51.196;3.510;2023-02-28T15:39:28;24.90;10.70
15666;DHT22;20725;51.196;3.510;2023-02-28T15:42:10;25.10;11.20
15666;DHT22;20725;51.196;3.510;2023-02-28T15:44:37;25.20;11.00
15666;DHT22;20725;51.196;3.510;2023-02-28T15:47:14;25.00;10.80
15666;DHT22;20725;51.196;3.510;2023-02-28T15:49:47;24.50;11.00
15666;DHT22;20725;51.196;3.510;2023-02-28T15:52:17;22.80;12.60
15666;DHT22;20725;51.196;3.510;2023-02-28T15:54:46;22.90;12.40
15666;DHT22;20725;51.196;3.510;2023-02-28T15:57:17;23.40;12.60
15666;DHT22;20725;51.196;3.510;2023-02-28T15:59:50;23.70;12.90
15666;DHT22;20725;51.196;3.510;2023-02-28T16:02:21;20.90;13.00
15666;DHT22;20725;51.196;3.510;2023-02-28T16:04:59;17.50;15.90
15666;DHT22;20725;51.196;3.510;2023-02-28T16:07:27;14.90;19.50
15666;DHT22;20725;51.196;3.510;2023-02-28T16:09:54;12.70;22.20
15666;DHT22;20725;51.196;3.510;2023-02-28T16:12:25;11.70;23.50
15666;DHT22;20725;51.196;3.510;2023-02-28T16:14:53;10.60;24.10
15666;DHT22;20725;51.196;3.510;2023-02-28T16:17:24;10.00;25.20
15666;DHT22;20725;51.196;3.510;2023-02-28T16:19:52;9.60;26.20
15666;DHT22;20725;51.196;3.510;2023-02-28T16:22:19;9.10;26.80
15666;DHT22;20725;51.196;3.510;2023-02-28T16:24:46;8.80;28.00
15666;DHT22;20725;51.196;3.510;2023-02-28T16:27:17;8.50;29.00
15666;DHT22;20725;51.196;3.510;2023-02-28T16:29:45;8.10;29.30
15666;DHT22;20725;51.196;3.510;2023-02-28T16:32:14;7.80;30.80
15666;DHT22;20725;51.196;3.510;2023-02-28T16:34:43;7.60;30.80
15666;DHT22;20725;51.196;3.510;2023-02-28T16:37:12;7.40;31.00
15666;DHT22;20725;51.196;3.510;2023-02-28T16:39:40;7.10;31.50